createdAt,value
2023-05-02T00:01:19.283Z,50.45
2023-05-02T00:04:06.111Z,50.40
2023-05-02T00:06:53.218Z,50.27
2023-05-02T00:09:40.437Z,50.67
2023-05-02T00:12:27.163Z,50.35
2023-05-02T00:15:13.913Z,50.16
2023-05-02T00:18:00.956Z,50.61
2023-05-02T00:20:47.773Z,50.02
2023-05-02T00:23:34.546Z,50.56
2023-05-02T00:26:21.277Z,50.10
2023-05-02T00:29:08.281Z,49.73
2023-05-02T00:31:55.518Z,49.89
2023-05-02T00:34:43.472Z,50.63
2023-05-02T00:37:30.302Z,50.24
2023-05-02T00:40:17.558Z,50.38
2023-05-02T00:43:05.795Z,49.90
2023-05-02T00:45:52.587Z,50.63
2023-05-02T00:48:39.396Z,49.85
2023-05-02T00:51:27.339Z,49.69
2023-05-02T00:54:14.088Z,49.53
2023-05-02T00:57:00.824Z,50.18
2023-05-02T00:59:47.526Z,50.22
2023-05-02T01:02:39.653Z,49.87
2023-05-02T01:05:32.985Z,49.92
2023-05-02T01:08:22.375Z,49.92
2023-05-02T01:11:15.167Z,49.69
2023-05-02T01:14:02.022Z,50.49
2023-05-02T01:16:48.748Z,50.00
2023-05-02T01:19:37.704Z,49.89
2023-05-02T01:22:25.419Z,50.20
2023-05-02T01:25:15.463Z,49.79
2023-05-02T01:28:05.568Z,50.11
2023-05-02T01:30:52.377Z,50.11
2023-05-02T01:33:39.080Z,49.88
2023-05-02T01:36:27.025Z,49.97
2023-05-02T01:39:14.500Z,50.38
2023-05-02T01:42:02.531Z,50.20
2023-05-02T01:44:49.376Z,50.08
2023-05-02T01:47:36.326Z,50.31
2023-05-02T01:50:24.373Z,50.20
2023-05-02T01:53:13.759Z,50.18
2023-05-02T01:56:00.899Z,49.94
2023-05-02T01:58:47.647Z,49.96
2023-05-02T02:01:35.529Z,49.63
2023-05-02T02:04:22.406Z,49.91
2023-05-02T02:07:09.848Z,49.67
2023-05-02T02:09:56.752Z,49.47
2023-05-02T02:12:49.182Z,49.62
2023-05-02T02:15:36.254Z,49.50
2023-05-02T02:18:25.174Z,49.57
2023-05-02T02:21:12.941Z,49.42
2023-05-02T02:23:59.815Z,49.54
2023-05-02T02:26:46.834Z,49.50
2023-05-02T02:29:33.540Z,49.81
2023-05-02T02:32:22.776Z,49.58
2023-05-02T02:35:09.640Z,50.10
2023-05-02T02:38:04.375Z,49.67
2023-05-02T02:41:02.597Z,49.52
2023-05-02T02:44:01.328Z,49.30
2023-05-02T02:47:09.060Z,50.11
2023-05-02T02:50:05.337Z,49.91
2023-05-02T02:53:01.173Z,49.35
2023-05-02T02:55:48.448Z,49.76
2023-05-02T02:58:38.168Z,49.59
2023-05-02T03:01:25.588Z,49.73
2023-05-02T03:04:12.824Z,49.88
2023-05-02T03:07:00.124Z,49.37
2023-05-02T03:09:47.455Z,49.82
2023-05-02T03:12:34.271Z,49.62
2023-05-02T03:15:41.002Z,49.50
2023-05-02T03:18:27.752Z,49.67
2023-05-02T03:21:14.532Z,49.74
2023-05-02T03:24:01.771Z,49.75
2023-05-02T03:26:48.498Z,49.95
2023-05-02T03:29:35.310Z,49.42
2023-05-02T03:32:22.110Z,50.20
2023-05-02T03:35:08.943Z,49.64
2023-05-02T03:37:55.739Z,49.66
2023-05-02T03:40:42.474Z,49.97
2023-05-02T03:43:29.246Z,49.56
2023-05-02T03:46:16.074Z,50.04
2023-05-02T03:49:04.517Z,49.73
2023-05-02T03:51:51.291Z,50.09
2023-05-02T03:54:38.169Z,50.02
2023-05-02T03:57:26.405Z,49.54
2023-05-02T04:00:13.236Z,49.80
2023-05-02T04:03:03.332Z,49.61
2023-05-02T04:05:53.669Z,50.09
2023-05-02T04:08:40.402Z,49.96
2023-05-02T04:11:27.303Z,49.90
2023-05-02T04:14:15.990Z,50.06
2023-05-02T04:17:02.776Z,50.13
2023-05-02T04:19:49.514Z,49.70
2023-05-02T04:22:36.375Z,50.07
2023-05-02T04:25:23.128Z,49.78
2023-05-02T04:28:09.891Z,49.85
2023-05-02T04:30:57.465Z,50.37
2023-05-02T04:33:44.246Z,49.78
2023-05-02T04:36:31.389Z,50.23
2023-05-02T04:39:18.075Z,50.25
2023-05-02T04:42:04.793Z,50.15
2023-05-02T04:44:52.656Z,49.84
2023-05-02T04:47:40.107Z,49.91
2023-05-02T04:50:28.281Z,49.73
2023-05-02T04:53:15.110Z,50.28
2023-05-02T04:56:01.895Z,50.29
2023-05-02T04:58:48.635Z,50.13
2023-05-02T05:01:35.510Z,50.10
2023-05-02T05:04:22.350Z,50.23
2023-05-02T05:07:09.070Z,50.70
2023-05-02T05:09:55.857Z,50.31
2023-05-02T05:12:42.643Z,50.54
2023-05-02T05:15:29.391Z,50.29
2023-05-02T05:18:16.205Z,50.47
2023-05-02T05:21:02.948Z,50.41
2023-05-02T05:23:50.128Z,50.56
2023-05-02T05:26:37.057Z,50.38
2023-05-02T05:29:23.872Z,52.16
2023-05-02T05:32:10.705Z,52.79
2023-05-02T05:34:57.469Z,52.63
2023-05-02T05:37:44.708Z,52.58
2023-05-02T05:40:31.454Z,52.52
2023-05-02T05:43:18.307Z,52.38
2023-05-02T05:46:05.158Z,52.33
2023-05-02T05:48:51.944Z,52.37
2023-05-02T05:51:38.692Z,52.36
2023-05-02T05:54:25.553Z,52.75
2023-05-02T05:57:12.265Z,52.70
2023-05-02T05:59:59.299Z,52.61
2023-05-02T06:02:46.400Z,52.60
2023-05-02T06:05:33.185Z,52.71
2023-05-02T06:08:21.617Z,52.59
2023-05-02T06:11:08.965Z,52.63
2023-05-02T06:13:55.853Z,52.89
2023-05-02T06:16:42.812Z,52.61
2023-05-02T06:19:29.598Z,52.82
2023-05-02T06:22:16.269Z,52.89
2023-05-02T06:25:05.240Z,53.05
2023-05-02T06:27:51.967Z,53.03
2023-05-02T06:30:38.777Z,53.22
2023-05-02T06:33:25.586Z,53.77
2023-05-02T06:36:12.307Z,53.40
2023-05-02T06:38:59.033Z,54.01
2023-05-02T06:41:46.031Z,53.98
2023-05-02T06:44:32.739Z,54.16
2023-05-02T06:47:19.529Z,54.02
2023-05-02T06:50:06.566Z,53.64
2023-05-02T06:52:53.349Z,53.73
2023-05-02T06:55:40.303Z,53.42
2023-05-02T06:58:27.113Z,53.49
2023-05-02T07:01:13.927Z,53.37
2023-05-02T07:04:01.108Z,53.26
2023-05-02T07:06:48.119Z,53.41
2023-05-02T07:09:35.106Z,53.23
2023-05-02T07:12:22.097Z,52.99
2023-05-02T07:15:08.909Z,52.95
2023-05-02T07:17:55.691Z,53.10
2023-05-02T07:20:42.650Z,53.10
2023-05-02T07:23:29.457Z,52.90
2023-05-02T07:26:17.066Z,52.91
2023-05-02T07:29:06.593Z,53.01
2023-05-02T07:31:53.468Z,52.81
2023-05-02T07:34:40.183Z,52.86
2023-05-02T07:37:27.020Z,52.81
2023-05-02T07:40:14.080Z,52.83
2023-05-02T07:43:01.113Z,52.75
2023-05-02T07:45:47.909Z,52.38
2023-05-02T07:48:34.930Z,52.60
2023-05-02T07:51:21.918Z,52.68
2023-05-02T07:54:18.401Z,52.14
2023-05-02T07:57:08.293Z,52.63
2023-05-02T07:59:57.346Z,52.31
2023-05-02T08:02:45.495Z,52.22
2023-05-02T08:05:32.541Z,52.48
2023-05-02T08:08:19.356Z,52.44
2023-05-02T08:11:06.945Z,52.75
2023-05-02T08:13:53.876Z,52.14
2023-05-02T08:16:41.025Z,52.39
2023-05-02T08:19:28.027Z,52.33
2023-05-02T08:22:14.998Z,52.29
2023-05-02T08:25:01.777Z,52.46
2023-05-02T08:27:48.541Z,52.35
2023-05-02T08:30:35.383Z,52.06
2023-05-02T08:33:22.220Z,52.31
2023-05-02T08:36:12.756Z,52.18
2023-05-02T08:38:59.486Z,52.54
2023-05-02T08:41:46.203Z,52.54
2023-05-02T08:44:32.901Z,52.36
2023-05-02T08:47:19.791Z,52.24
2023-05-02T08:50:06.948Z,52.22
2023-05-02T08:52:53.726Z,52.31
2023-05-02T08:55:41.118Z,52.38
2023-05-02T08:58:28.066Z,52.23
2023-05-02T09:01:19.516Z,52.03
2023-05-02T09:04:06.471Z,52.13
2023-05-02T09:06:53.697Z,52.21
2023-05-02T09:09:40.647Z,51.82
2023-05-02T09:12:27.505Z,52.51
2023-05-02T09:15:17.715Z,51.64
2023-05-02T09:18:06.031Z,52.25
2023-05-02T09:20:52.823Z,51.89
2023-05-02T09:23:43.611Z,52.05
2023-05-02T09:26:32.631Z,52.09
2023-05-02T09:29:19.823Z,52.11
2023-05-02T09:32:06.870Z,51.71
2023-05-02T09:35:06.613Z,52.02
2023-05-02T09:37:54.445Z,51.84
2023-05-02T09:40:44.858Z,52.04
2023-05-02T09:43:32.480Z,51.45
2023-05-02T09:46:19.261Z,51.90
2023-05-02T09:49:06.090Z,51.93
2023-05-02T09:51:52.927Z,51.56
2023-05-02T09:54:39.664Z,52.02
2023-05-02T09:57:41.764Z,51.66
2023-05-02T10:00:38.803Z,51.94
2023-05-02T10:03:26.660Z,51.58
2023-05-02T10:06:13.665Z,51.98
2023-05-02T10:09:00.433Z,52.05
2023-05-02T10:11:47.430Z,51.98
2023-05-02T10:14:41.708Z,51.90
2023-05-02T10:17:30.693Z,51.99
2023-05-02T10:20:22.617Z,52.41
2023-05-02T10:23:09.406Z,52.07
2023-05-02T10:25:58.232Z,52.43
2023-05-02T10:28:46.904Z,52.25
2023-05-02T10:31:34.177Z,52.59
2023-05-02T10:34:21.100Z,52.37
2023-05-02T10:37:07.862Z,52.42
2023-05-02T10:39:54.702Z,52.14
2023-05-02T10:42:45.878Z,52.38
2023-05-02T10:45:32.817Z,52.98
2023-05-02T10:48:23.420Z,52.55
2023-05-02T10:51:14.226Z,52.28
2023-05-02T10:54:16.394Z,52.87
2023-05-02T10:57:04.458Z,52.72
2023-05-02T10:59:51.640Z,52.88
2023-05-02T11:02:38.436Z,52.96
2023-05-02T11:05:25.481Z,52.20
2023-05-02T11:08:15.294Z,52.15
2023-05-02T11:11:20.814Z,52.31
2023-05-02T11:14:07.699Z,52.65
2023-05-02T11:17:06.484Z,52.54
2023-05-02T11:19:56.339Z,52.73
2023-05-02T11:22:44.853Z,52.49
2023-05-02T11:25:35.695Z,52.26
2023-05-02T11:28:37.883Z,52.71
2023-05-02T11:31:27.760Z,52.58
2023-05-02T11:34:14.938Z,51.92
2023-05-02T11:37:09.945Z,52.49
2023-05-02T11:40:10.547Z,52.48
2023-05-02T11:42:58.682Z,54.47
2023-05-02T11:45:45.648Z,53.61
2023-05-02T11:48:33.799Z,53.11
2023-05-02T11:51:56.024Z,52.80
2023-05-02T12:02:15.468Z,50.48
2023-05-02T12:05:35.211Z,50.48
2023-05-02T12:12:10.293Z,50.91
2023-05-02T12:36:40.559Z,49.98
2023-05-02T12:47:04.609Z,50.53
2023-05-02T12:57:28.929Z,48.65
2023-05-02T13:00:21.364Z,48.35
2023-05-02T13:03:11.882Z,49.90
2023-05-02T13:06:05.059Z,50.16
2023-05-02T13:08:54.546Z,50.61
2023-05-02T13:11:44.179Z,51.17
2023-05-02T13:14:31.253Z,49.52
2023-05-02T13:17:18.109Z,49.79
2023-05-02T13:20:05.490Z,49.19
2023-05-02T13:22:52.455Z,48.41
2023-05-02T13:25:39.576Z,48.22
2023-05-02T13:28:27.003Z,48.87
2023-05-02T13:31:14.077Z,48.06
2023-05-02T13:34:01.115Z,47.88
2023-05-02T13:36:47.997Z,48.08
2023-05-02T13:39:35.943Z,47.41
2023-05-02T13:42:23.054Z,47.69
2023-05-02T13:45:10.491Z,47.58
2023-05-02T13:47:57.413Z,47.14
2023-05-02T13:50:44.217Z,47.77
2023-05-02T13:53:30.935Z,47.88
2023-05-02T13:56:18.580Z,47.79
2023-05-02T13:59:07.522Z,47.62
2023-05-02T14:01:55.099Z,46.69
2023-05-02T14:04:41.984Z,47.03
2023-05-02T14:07:29.492Z,47.24
2023-05-02T14:10:16.365Z,46.80
2023-05-02T14:13:03.228Z,46.55
2023-05-02T14:15:50.184Z,46.39
2023-05-02T14:18:36.959Z,45.90
2023-05-02T14:21:24.045Z,45.59
2023-05-02T14:24:12.563Z,46.32
2023-05-02T14:26:59.374Z,46.45
2023-05-02T14:29:46.534Z,46.14
2023-05-02T14:32:33.726Z,46.18
2023-05-02T14:35:20.666Z,45.89
2023-05-02T14:38:07.435Z,45.84
2023-05-02T14:40:55.129Z,46.51
2023-05-02T14:43:43.064Z,46.51
2023-05-02T14:46:31.718Z,45.94
2023-05-02T14:49:18.586Z,45.82
2023-05-02T14:52:05.411Z,46.20
2023-05-02T14:54:52.224Z,46.61
2023-05-02T14:57:39.171Z,47.09
2023-05-02T15:00:26.429Z,47.52
2023-05-02T15:03:13.345Z,47.48
2023-05-02T15:06:00.491Z,47.98
2023-05-02T15:08:47.770Z,48.37
2023-05-02T15:11:34.609Z,48.52
2023-05-02T15:14:21.620Z,48.71
2023-05-02T15:17:08.507Z,48.97
2023-05-02T15:19:57.816Z,49.38
2023-05-02T15:22:45.426Z,49.47
2023-05-02T15:25:32.296Z,49.57
2023-05-02T15:28:19.142Z,49.70
2023-05-02T15:31:06.054Z,49.66
2023-05-02T15:33:52.820Z,50.36
2023-05-02T15:36:40.840Z,49.98
2023-05-02T15:39:28.048Z,49.88
2023-05-02T15:42:14.838Z,49.91
2023-05-02T15:45:01.571Z,49.84
2023-05-02T15:47:48.609Z,50.17
2023-05-02T15:50:35.960Z,50.01
2023-05-02T15:53:23.109Z,50.29
2023-05-02T15:56:10.449Z,49.90
2023-05-02T15:58:57.163Z,50.05
2023-05-02T16:01:43.940Z,50.20
2023-05-02T16:04:32.187Z,49.96
2023-05-02T16:07:19.032Z,49.98
2023-05-02T16:10:06.385Z,50.20
2023-05-02T16:12:53.396Z,50.00
2023-05-02T16:15:40.205Z,50.27
2023-05-02T16:18:29.846Z,50.16
2023-05-02T16:21:17.019Z,50.03
2023-05-02T16:24:03.961Z,50.33
2023-05-02T16:26:50.746Z,49.90
2023-05-02T16:29:37.585Z,49.82
2023-05-02T16:32:24.474Z,49.81
2023-05-02T16:35:13.190Z,50.16
2023-05-02T16:38:00.136Z,49.97
2023-05-02T16:40:47.146Z,50.05
2023-05-02T16:43:34.012Z,49.81
2023-05-02T16:46:21.039Z,50.23
2023-05-02T16:49:07.941Z,49.94
2023-05-02T16:51:55.786Z,49.67
2023-05-02T16:54:42.577Z,49.72
2023-05-02T16:57:29.378Z,50.00
2023-05-02T17:00:17.086Z,50.26
2023-05-02T17:03:05.483Z,50.00
2023-05-02T17:05:52.514Z,49.83
2023-05-02T17:08:39.378Z,49.52
2023-05-02T17:11:26.125Z,49.30
2023-05-02T17:14:13.776Z,49.17
2023-05-02T17:17:00.968Z,49.34
2023-05-02T17:19:48.603Z,49.14
2023-05-02T17:22:35.720Z,49.27
2023-05-02T17:25:22.498Z,49.21
2023-05-02T17:28:09.447Z,49.43
2023-05-02T17:30:59.246Z,49.55
2023-05-02T17:33:46.469Z,49.54
2023-05-02T17:36:33.275Z,49.54
2023-05-02T17:39:20.021Z,49.97
2023-05-02T17:42:07.156Z,49.99
2023-05-02T17:44:53.922Z,49.80
2023-05-02T17:47:40.768Z,50.07
2023-05-02T17:50:27.553Z,49.99
2023-05-02T17:53:15.569Z,49.87
2023-05-02T17:56:03.214Z,49.91
2023-05-02T17:58:50.028Z,50.14
2023-05-02T18:01:37.077Z,49.30
2023-05-02T18:04:25.463Z,48.95
2023-05-02T18:07:12.274Z,47.37
2023-05-02T18:10:02.322Z,48.13
2023-05-02T18:12:49.560Z,48.85
2023-05-02T18:15:37.592Z,48.95
2023-05-02T18:18:24.361Z,48.87
2023-05-02T18:21:11.671Z,48.86
2023-05-02T18:23:58.611Z,48.85
2023-05-02T18:26:45.463Z,48.68
2023-05-02T18:29:34.970Z,48.78
2023-05-02T18:32:21.740Z,48.65
2023-05-02T18:35:10.505Z,48.46
2023-05-02T18:37:57.857Z,48.56
2023-05-02T18:40:44.653Z,48.76
2023-05-02T18:43:32.582Z,48.53
2023-05-02T18:46:19.560Z,48.54
2023-05-02T18:49:09.059Z,48.49
2023-05-02T18:51:55.956Z,48.67
2023-05-02T18:54:42.738Z,48.59
2023-05-02T18:57:29.506Z,48.51
2023-05-02T19:00:16.439Z,48.07
2023-05-02T19:03:03.832Z,48.33
2023-05-02T19:05:51.371Z,48.15
2023-05-02T19:08:40.180Z,48.44
2023-05-02T19:11:26.999Z,48.42
2023-05-02T19:14:13.793Z,48.50
2023-05-02T19:17:00.713Z,48.59
2023-05-02T19:19:48.173Z,48.37
2023-05-02T19:22:37.122Z,48.51
2023-05-02T19:25:23.999Z,48.57
2023-05-02T19:28:12.285Z,48.57
2023-05-02T19:30:59.043Z,48.58
2023-05-02T19:33:52.090Z,48.66
2023-05-02T19:36:39.155Z,48.89
2023-05-02T19:39:26.171Z,48.75
2023-05-02T19:42:12.999Z,48.93
2023-05-02T19:44:59.912Z,48.66
2023-05-02T19:47:47.209Z,48.89
2023-05-02T19:50:34.150Z,48.99
2023-05-02T19:53:20.995Z,48.85
2023-05-02T19:56:08.161Z,48.90
2023-05-02T19:58:56.778Z,48.83
2023-05-02T20:01:43.735Z,48.77
2023-05-02T20:04:30.552Z,48.80
2023-05-02T20:07:17.435Z,49.01
2023-05-02T20:10:04.646Z,49.23
2023-05-02T20:12:51.637Z,49.40
2023-05-02T20:15:38.598Z,49.27
2023-05-02T20:18:25.440Z,48.91
2023-05-02T20:21:12.233Z,49.08
2023-05-02T20:23:59.114Z,49.14
2023-05-02T20:26:46.001Z,49.28
2023-05-02T20:29:32.856Z,49.00
2023-05-02T20:32:19.649Z,49.19
2023-05-02T20:35:07.187Z,49.43
2023-05-02T20:37:54.047Z,49.13
2023-05-02T20:40:43.466Z,49.21
2023-05-02T20:43:30.224Z,49.26
2023-05-02T20:46:17.139Z,49.26
2023-05-02T20:49:05.758Z,49.45
2023-05-02T20:51:52.610Z,49.19
2023-05-02T20:54:39.642Z,49.39
2023-05-02T20:57:26.444Z,49.22
2023-05-02T21:00:14.325Z,49.19
2023-05-02T21:03:01.264Z,49.20
2023-05-02T21:05:54.701Z,49.23
2023-05-02T21:08:41.448Z,49.17
2023-05-02T21:11:28.306Z,49.42
2023-05-02T21:14:16.060Z,49.36
2023-05-02T21:17:02.956Z,49.46
2023-05-02T21:19:52.595Z,49.51
2023-05-02T21:22:39.334Z,49.46
2023-05-02T21:25:26.150Z,49.68
2023-05-02T21:28:13.024Z,49.64
2023-05-02T21:31:01.117Z,49.55
2023-05-02T21:33:47.944Z,49.50
2023-05-02T21:36:34.751Z,49.53
2023-05-02T21:39:21.544Z,49.56
2023-05-02T21:42:08.355Z,49.71
2023-05-02T21:44:55.283Z,49.79
2023-05-02T21:47:42.048Z,49.43
2023-05-02T21:50:29.415Z,49.63
2023-05-02T21:53:16.259Z,49.55
2023-05-02T21:56:03.232Z,49.74
2023-05-02T21:58:51.385Z,49.70
2023-05-02T22:01:38.236Z,49.58
2023-05-02T22:04:25.361Z,49.94
2023-05-02T22:07:12.509Z,49.83
2023-05-02T22:09:59.339Z,49.60
2023-05-02T22:12:46.706Z,49.92
2023-05-02T22:15:33.538Z,49.65
2023-05-02T22:18:20.533Z,49.85
2023-05-02T22:21:08.195Z,49.99
2023-05-02T22:23:55.063Z,50.13
2023-05-02T22:26:41.864Z,49.78
2023-05-02T22:29:28.687Z,50.29
2023-05-02T22:32:15.594Z,49.83
2023-05-02T22:35:03.810Z,49.59
2023-05-02T22:37:50.603Z,50.05
2023-05-02T22:40:37.420Z,49.82
2023-05-02T22:43:24.232Z,49.78
2023-05-02T22:46:11.161Z,49.95
2023-05-02T22:48:57.983Z,49.84
2023-05-02T22:51:45.222Z,49.52
2023-05-02T22:54:32.007Z,49.55
2023-05-02T22:57:19.336Z,49.39
2023-05-02T23:00:07.441Z,49.61
2023-05-02T23:02:55.230Z,49.38
2023-05-02T23:05:42.122Z,49.53
2023-05-02T23:08:28.957Z,49.14
2023-05-02T23:11:15.725Z,49.53
2023-05-02T23:14:02.584Z,49.24
2023-05-02T23:16:53.927Z,49.28
2023-05-02T23:19:40.799Z,49.74
2023-05-02T23:22:27.656Z,49.56
2023-05-02T23:25:14.624Z,49.83
2023-05-02T23:28:01.621Z,49.67
2023-05-02T23:30:48.413Z,49.24
2023-05-02T23:33:36.065Z,49.53
2023-05-02T23:36:22.828Z,49.89
2023-05-02T23:39:09.959Z,49.40
2023-05-02T23:41:56.877Z,49.78
2023-05-02T23:44:43.947Z,49.84
2023-05-02T23:47:30.783Z,49.50
2023-05-02T23:50:18.384Z,49.92
2023-05-02T23:53:05.403Z,49.80
2023-05-02T23:55:52.190Z,49.69
2023-05-02T23:58:38.941Z,49.96
